createdAt,value
2019-02-10T00:01:12.821Z,1.73
2019-02-10T00:03:40.974Z,2.30
2019-02-10T00:06:08.192Z,2.03
2019-02-10T00:08:35.205Z,4.00
2019-02-10T00:11:02.132Z,2.77
2019-02-10T00:13:31.464Z,2.87
2019-02-10T00:15:59.695Z,2.37
2019-02-10T00:18:26.641Z,2.47
2019-02-10T00:20:53.559Z,2.87
2019-02-10T00:23:20.530Z,2.73
2019-02-10T00:25:47.456Z,1.87
2019-02-10T00:28:14.444Z,2.83
2019-02-10T00:30:41.460Z,1.97
2019-02-10T00:33:08.512Z,1.57
2019-02-10T00:35:35.448Z,2.43
2019-02-10T00:38:02.405Z,2.33
2019-02-10T00:40:29.452Z,1.53
2019-02-10T00:42:56.550Z,2.17
2019-02-10T00:45:23.466Z,2.00
2019-02-10T00:47:50.443Z,2.57
2019-02-10T00:50:17.407Z,1.93
2019-02-10T00:52:44.373Z,1.93
2019-02-10T00:55:11.301Z,1.83
2019-02-10T00:57:38.355Z,2.50
2019-02-10T01:00:05.504Z,2.60
2019-02-10T01:02:32.531Z,3.10
2019-02-10T01:04:59.499Z,2.30
2019-02-10T01:07:26.407Z,2.90
2019-02-10T01:09:53.405Z,2.30
2019-02-10T01:12:20.683Z,2.30
2019-02-10T01:14:47.641Z,2.90
2019-02-10T01:17:14.598Z,3.63
2019-02-10T01:19:41.582Z,2.37
2019-02-10T01:22:08.527Z,2.27
2019-02-10T01:24:35.502Z,1.87
2019-02-10T01:27:02.634Z,3.00
2019-02-10T01:29:29.601Z,2.90
2019-02-10T01:31:56.546Z,2.60
2019-02-10T01:34:23.526Z,3.07
2019-02-10T01:36:50.447Z,2.77
2019-02-10T01:39:19.369Z,2.50
2019-02-10T01:41:46.590Z,2.60
2019-02-10T01:44:13.571Z,2.43
2019-02-10T01:46:40.509Z,2.30
2019-02-10T01:49:07.492Z,3.33
2019-02-10T01:51:34.436Z,2.27
2019-02-10T01:54:01.487Z,2.63
2019-02-10T01:56:28.441Z,2.17
2019-02-10T01:58:55.428Z,2.23
2019-02-10T02:01:22.399Z,3.20
2019-02-10T02:03:49.346Z,2.57
2019-02-10T02:06:16.319Z,2.13
2019-02-10T02:08:43.333Z,2.00
2019-02-10T02:11:10.360Z,2.47
2019-02-10T02:13:37.266Z,2.00
2019-02-10T02:16:04.264Z,2.30
2019-02-10T02:18:31.372Z,2.20
2019-02-10T02:20:58.327Z,2.67
2019-02-10T02:23:25.319Z,2.87
2019-02-10T02:25:52.291Z,2.80
2019-02-10T02:28:22.309Z,2.37
2019-02-10T02:30:49.285Z,2.63
2019-02-10T02:33:16.212Z,2.70
2019-02-10T02:35:43.365Z,2.30
2019-02-10T02:38:10.265Z,1.57
2019-02-10T02:40:37.220Z,3.07
2019-02-10T02:43:04.212Z,2.20
2019-02-10T02:45:31.201Z,3.00
2019-02-10T02:47:58.137Z,2.43
2019-02-10T02:50:25.137Z,2.17
2019-02-10T02:52:52.077Z,2.87
2019-02-10T02:55:19.009Z,2.70
2019-02-10T02:57:45.930Z,2.23
2019-02-10T03:00:12.874Z,2.57
2019-02-10T03:02:39.782Z,1.93
2019-02-10T03:05:07.244Z,2.10
2019-02-10T03:07:34.156Z,2.70
2019-02-10T03:10:01.141Z,2.40
2019-02-10T03:12:28.065Z,2.67
2019-02-10T03:14:55.012Z,2.70
2019-02-10T03:17:21.969Z,2.23
2019-02-10T03:19:48.901Z,2.20
2019-02-10T03:22:15.875Z,2.30
2019-02-10T03:24:42.785Z,2.77
2019-02-10T03:27:09.757Z,2.50
2019-02-10T03:29:36.712Z,4.10
2019-02-10T03:32:03.657Z,2.07
2019-02-10T03:34:30.604Z,3.03
2019-02-10T03:36:57.547Z,2.30
2019-02-10T03:39:24.456Z,2.87
2019-02-10T03:41:51.421Z,2.50
2019-02-10T03:44:18.336Z,2.90
2019-02-10T03:46:45.284Z,1.90
2019-02-10T03:49:12.191Z,2.47
2019-02-10T03:51:39.134Z,2.13
2019-02-10T03:54:06.162Z,1.80
2019-02-10T03:56:33.097Z,2.50
2019-02-10T03:59:00.072Z,2.10
2019-02-10T04:01:26.994Z,2.97
2019-02-10T04:03:53.902Z,2.20
2019-02-10T04:06:20.856Z,2.43
2019-02-10T04:08:47.765Z,1.80
2019-02-10T04:11:14.742Z,2.70
2019-02-10T04:13:41.663Z,3.10
2019-02-10T04:16:08.630Z,2.10
2019-02-10T04:18:35.577Z,1.67
2019-02-10T04:21:02.524Z,2.40
2019-02-10T04:23:29.571Z,2.70
2019-02-10T04:25:56.680Z,2.20
2019-02-10T04:28:23.638Z,2.90
2019-02-10T04:30:50.544Z,2.40
2019-02-10T04:33:17.490Z,2.10
2019-02-10T04:35:44.461Z,2.23
2019-02-10T04:38:11.346Z,1.80
2019-02-10T04:40:38.279Z,2.23
2019-02-10T04:43:05.312Z,1.87
2019-02-10T04:45:32.260Z,2.07
2019-02-10T04:47:59.266Z,1.67
2019-02-10T04:50:26.175Z,1.90
2019-02-10T04:52:53.139Z,1.80
2019-02-10T04:55:20.064Z,3.40
2019-02-10T04:57:47.041Z,2.83
2019-02-10T05:00:13.971Z,2.50
2019-02-10T05:02:40.918Z,1.77
2019-02-10T05:05:07.937Z,2.37
2019-02-10T05:07:34.881Z,2.70
2019-02-10T05:10:01.826Z,1.73
2019-02-10T05:12:28.884Z,2.57
2019-02-10T05:14:55.894Z,2.63
2019-02-10T05:17:22.888Z,1.93
2019-02-10T05:19:50.097Z,2.30
2019-02-10T05:22:17.023Z,2.23
2019-02-10T05:24:43.957Z,2.47
2019-02-10T05:27:10.890Z,1.87
2019-02-10T05:29:37.875Z,1.70
2019-02-10T05:32:04.779Z,2.40
2019-02-10T05:34:31.714Z,1.70
2019-02-10T05:36:58.651Z,1.47
2019-02-10T05:39:25.576Z,1.93
2019-02-10T05:41:52.480Z,1.50
2019-02-10T05:44:19.477Z,1.97
2019-02-10T05:46:46.640Z,2.37
2019-02-10T05:49:13.614Z,1.80
2019-02-10T05:51:40.536Z,1.87
2019-02-10T05:54:07.477Z,1.87
2019-02-10T05:56:34.553Z,2.00
2019-02-10T05:59:01.538Z,1.50
2019-02-10T06:02:00.273Z,2.10
2019-02-10T06:04:27.504Z,1.53
2019-02-10T06:06:56.627Z,1.70
2019-02-10T06:09:23.599Z,1.60
2019-02-10T06:11:50.538Z,1.53
2019-02-10T06:14:17.468Z,1.73
2019-02-10T06:16:44.407Z,2.00
2019-02-10T06:19:11.621Z,1.50
2019-02-10T06:21:38.580Z,1.20
2019-02-10T06:24:05.551Z,1.50
2019-02-10T06:26:32.447Z,1.53
2019-02-10T06:28:59.414Z,2.13
2019-02-10T06:31:26.313Z,1.07
2019-02-10T06:33:53.261Z,1.07
2019-02-10T06:36:20.271Z,0.70
2019-02-10T06:38:47.195Z,1.60
2019-02-10T06:41:14.319Z,1.13
2019-02-10T06:43:41.199Z,1.10
2019-02-10T06:46:08.197Z,1.13
2019-02-10T06:48:35.076Z,1.00
2019-02-10T06:51:02.043Z,0.90
2019-02-10T06:53:29.232Z,1.00
2019-02-10T06:55:56.370Z,1.30
2019-02-10T06:58:23.378Z,0.83
2019-02-10T07:00:57.866Z,0.70
2019-02-10T07:03:35.997Z,1.17
2019-02-10T07:06:03.227Z,1.20
2019-02-10T07:08:30.931Z,0.83
2019-02-10T07:10:57.992Z,0.70
2019-02-10T07:13:29.859Z,1.27
2019-02-10T07:16:31.886Z,0.70
2019-02-10T07:19:35.611Z,0.70
2019-02-10T07:22:04.807Z,0.83
2019-02-10T07:24:46.112Z,1.37
2019-02-10T07:27:27.899Z,0.67
2019-02-10T07:30:32.619Z,0.80
2019-02-10T07:33:00.522Z,1.00
2019-02-10T07:36:02.187Z,1.30
2019-02-10T07:39:26.850Z,0.80
2019-02-10T07:42:34.314Z,0.90
2019-02-10T07:45:46.284Z,0.97
2019-02-10T07:48:38.382Z,0.90
2019-02-10T07:51:55.470Z,1.10
2019-02-10T07:54:30.582Z,1.00
2019-02-10T07:57:21.785Z,1.50
2019-02-10T08:00:32.989Z,1.10
2019-02-10T08:03:18.381Z,1.10
2019-02-10T08:06:14.481Z,0.60
2019-02-10T08:09:19.379Z,0.90
2019-02-10T08:12:40.498Z,1.33
2019-02-10T08:15:51.129Z,1.30
2019-02-10T08:18:43.195Z,1.30
2019-02-10T08:21:52.713Z,2.40
2019-02-10T08:24:53.241Z,1.53
2019-02-10T08:27:40.775Z,1.23
2019-02-10T08:30:55.472Z,1.20
2019-02-10T08:33:33.141Z,1.23
2019-02-10T08:36:25.543Z,1.37
2019-02-10T08:39:36.755Z,1.40
2019-02-10T08:42:44.374Z,1.37
2019-02-10T08:45:33.805Z,1.30
2019-02-10T08:48:44.751Z,1.87
2019-02-10T08:51:44.395Z,1.37
2019-02-10T08:54:11.776Z,1.70
2019-02-10T08:56:38.696Z,1.43
2019-02-10T08:59:05.632Z,2.70
2019-02-10T09:01:32.518Z,1.80
2019-02-10T09:03:59.436Z,1.43
2019-02-10T09:06:26.339Z,1.27
2019-02-10T09:08:53.257Z,1.47
2019-02-10T09:11:20.303Z,0.80
2019-02-10T09:13:47.242Z,0.70
2019-02-10T09:16:14.129Z,1.00
2019-02-10T09:18:41.069Z,0.67
2019-02-10T09:21:07.977Z,1.20
2019-02-10T09:23:34.908Z,0.70
2019-02-10T09:26:01.810Z,1.03
2019-02-10T09:28:28.750Z,0.80
2019-02-10T09:30:55.659Z,0.67
2019-02-10T09:33:22.741Z,1.17
2019-02-10T09:35:49.643Z,0.70
2019-02-10T09:38:16.566Z,0.80
2019-02-10T09:40:43.478Z,0.90
2019-02-10T09:43:10.414Z,0.63
2019-02-10T09:45:37.310Z,0.90
2019-02-10T09:48:04.255Z,0.87
2019-02-10T09:50:31.200Z,0.70
2019-02-10T09:52:58.149Z,0.90
2019-02-10T09:55:25.094Z,0.90
2019-02-10T09:57:52.002Z,1.10
2019-02-10T10:00:18.930Z,0.50
2019-02-10T10:02:45.836Z,0.60
2019-02-10T10:05:12.818Z,0.70
2019-02-10T10:07:39.730Z,1.13
2019-02-10T10:10:08.138Z,0.60
2019-02-10T10:12:35.135Z,0.80
2019-02-10T10:15:02.069Z,0.60
2019-02-10T10:17:28.985Z,0.60
2019-02-10T10:19:56.142Z,0.70
2019-02-10T10:22:23.026Z,0.50
2019-02-10T10:24:50.744Z,0.50
2019-02-10T10:27:17.769Z,0.50
2019-02-10T10:29:44.695Z,0.60
2019-02-10T10:32:11.608Z,0.50
2019-02-10T10:34:38.535Z,0.70
2019-02-10T10:37:05.423Z,3.93
2019-02-10T10:39:32.357Z,0.60
2019-02-10T10:41:59.257Z,0.63
2019-02-10T10:44:26.186Z,0.50
2019-02-10T10:46:53.093Z,0.60
2019-02-10T10:49:20.049Z,0.50
2019-02-10T10:51:46.971Z,0.40
2019-02-10T10:54:13.878Z,0.60
2019-02-10T10:56:40.809Z,0.30
2019-02-10T10:59:07.801Z,0.40
2019-02-10T11:01:34.736Z,0.50
2019-02-10T11:04:01.659Z,0.50
2019-02-10T11:06:28.605Z,0.30
2019-02-10T11:08:55.520Z,0.40
2019-02-10T11:11:22.485Z,0.80
2019-02-10T11:13:49.375Z,0.50
2019-02-10T11:16:16.317Z,0.43
2019-02-10T11:18:43.214Z,0.43
2019-02-10T11:21:10.132Z,0.50
2019-02-10T11:23:37.007Z,0.60
2019-02-10T11:26:04.023Z,0.70
2019-02-10T11:28:30.925Z,0.70
2019-02-10T11:30:57.893Z,1.60
2019-02-10T11:33:24.822Z,1.40
2019-02-10T11:35:51.792Z,2.53
2019-02-10T11:38:18.720Z,5.17
2019-02-10T11:40:45.663Z,0.93
2019-02-10T11:43:12.570Z,0.80
2019-02-10T11:45:39.504Z,0.70
2019-02-10T11:48:07.862Z,0.60
2019-02-10T11:50:34.975Z,0.83
2019-02-10T11:53:01.931Z,0.93
2019-02-10T11:55:28.910Z,0.57
2019-02-10T11:57:55.829Z,0.73
2019-02-10T12:00:22.747Z,0.90
2019-02-10T12:02:49.657Z,0.83
2019-02-10T12:05:16.568Z,0.73
2019-02-10T12:07:43.511Z,0.80
2019-02-10T12:10:10.441Z,0.87
2019-02-10T12:12:37.399Z,0.57
2019-02-10T12:15:05.301Z,1.23
2019-02-10T12:17:32.322Z,1.00
2019-02-10T12:19:59.265Z,1.03
2019-02-10T12:22:26.208Z,1.13
2019-02-10T12:24:53.169Z,1.50
2019-02-10T12:27:20.084Z,0.87
2019-02-10T12:29:47.006Z,0.90
2019-02-10T12:32:13.985Z,0.77
2019-02-10T12:34:40.936Z,1.77
2019-02-10T12:37:07.876Z,0.90
2019-02-10T12:39:34.864Z,0.60
2019-02-10T12:42:04.918Z,0.77
2019-02-10T12:44:31.964Z,1.00
2019-02-10T12:46:58.916Z,0.50
2019-02-10T12:49:25.845Z,1.00
2019-02-10T12:51:52.795Z,1.00
2019-02-10T12:54:19.737Z,1.00
2019-02-10T12:56:47.218Z,0.70
2019-02-10T12:59:14.133Z,1.10
2019-02-10T13:01:41.103Z,0.50
2019-02-10T13:04:08.005Z,1.00
2019-02-10T13:06:34.905Z,0.73
2019-02-10T13:09:02.463Z,1.00
2019-02-10T13:11:29.422Z,0.97
2019-02-10T13:13:56.356Z,0.97
2019-02-10T13:16:23.263Z,1.10
2019-02-10T13:18:50.228Z,1.23
2019-02-10T13:21:17.148Z,1.03
2019-02-10T13:23:44.101Z,1.37
2019-02-10T13:26:11.071Z,1.70
2019-02-10T13:28:38.021Z,1.50
2019-02-10T13:31:04.926Z,1.30
2019-02-10T13:33:31.900Z,1.30
2019-02-10T13:35:58.818Z,1.27
2019-02-10T13:38:25.766Z,1.00
2019-02-10T13:40:52.689Z,1.13
2019-02-10T13:43:19.616Z,1.20
2019-02-10T13:45:46.597Z,1.20
2019-02-10T13:48:13.551Z,1.20
2019-02-10T13:50:40.483Z,1.37
2019-02-10T13:53:09.079Z,1.40
2019-02-10T13:55:36.165Z,1.50
2019-02-10T13:58:03.285Z,2.17
2019-02-10T14:00:30.319Z,2.10
2019-02-10T14:02:57.258Z,2.70
2019-02-10T14:05:24.243Z,2.30
2019-02-10T14:07:51.382Z,2.50
2019-02-10T14:10:25.275Z,3.60
2019-02-10T14:12:47.330Z,3.20
2019-02-10T14:15:14.256Z,3.60
2019-02-10T14:17:41.164Z,4.47
2019-02-10T14:20:10.294Z,4.00
2019-02-10T14:22:37.216Z,4.57
2019-02-10T14:25:04.839Z,4.43
2019-02-10T14:27:31.741Z,4.90
2019-02-10T14:29:58.683Z,4.90
2019-02-10T14:32:25.583Z,4.37
2019-02-10T14:34:52.509Z,3.87
2019-02-10T14:37:19.423Z,4.17
2019-02-10T14:39:46.441Z,4.60
2019-02-10T14:42:13.350Z,5.07
2019-02-10T14:44:40.317Z,4.83
2019-02-10T14:47:07.255Z,4.50
2019-02-10T14:49:34.206Z,4.50
2019-02-10T14:52:01.108Z,5.07
2019-02-10T14:54:28.055Z,4.13
2019-02-10T14:56:55.045Z,4.70
2019-02-10T14:59:22.014Z,5.33
2019-02-10T15:01:48.947Z,4.53
2019-02-10T15:04:15.865Z,5.00
2019-02-10T15:06:42.773Z,5.00
2019-02-10T15:09:10.696Z,4.27
2019-02-10T15:11:37.628Z,5.03
2019-02-10T15:14:04.598Z,5.00
2019-02-10T15:16:31.546Z,4.57
2019-02-10T15:18:58.510Z,5.37
2019-02-10T15:21:25.411Z,5.33
2019-02-10T15:23:52.340Z,5.67
2019-02-10T15:26:19.326Z,6.00
2019-02-10T15:28:46.235Z,6.30
2019-02-10T15:31:13.253Z,6.83
2019-02-10T15:33:40.133Z,6.30
2019-02-10T15:36:07.137Z,6.83
2019-02-10T15:38:34.044Z,7.53
2019-02-10T15:41:00.968Z,7.13
2019-02-10T15:43:27.879Z,7.47
2019-02-10T15:45:54.836Z,8.20
2019-02-10T15:48:21.767Z,7.50
2019-02-10T15:50:48.720Z,8.63
2019-02-10T15:53:15.647Z,6.90
2019-02-10T15:55:42.583Z,7.50
2019-02-10T15:58:09.518Z,7.37
2019-02-10T16:00:36.979Z,7.13
2019-02-10T16:03:03.914Z,5.63
2019-02-10T16:05:30.841Z,5.77
2019-02-10T16:07:57.857Z,5.23
2019-02-10T16:10:24.860Z,5.30
2019-02-10T16:12:51.776Z,5.33
2019-02-10T16:15:18.743Z,4.00
2019-02-10T16:17:45.657Z,4.53
2019-02-10T16:20:12.616Z,3.97
2019-02-10T16:22:39.569Z,4.10
2019-02-10T16:25:06.655Z,5.03
2019-02-10T16:27:33.619Z,4.50
2019-02-10T16:30:00.636Z,4.03
2019-02-10T16:32:27.604Z,4.10
2019-02-10T16:34:54.513Z,3.60
2019-02-10T16:37:21.439Z,3.73
2019-02-10T16:39:48.358Z,4.87
2019-02-10T16:42:15.296Z,4.23
2019-02-10T16:44:42.251Z,3.93
2019-02-10T16:47:10.079Z,3.93
2019-02-10T16:49:36.969Z,3.20
2019-02-10T16:52:04.339Z,2.90
2019-02-10T16:54:31.252Z,2.60
2019-02-10T16:56:58.182Z,1.97
2019-02-10T16:59:25.182Z,1.90
2019-02-10T17:01:52.158Z,1.37
2019-02-10T17:04:19.062Z,1.50
2019-02-10T17:06:46.010Z,1.17
2019-02-10T17:09:12.936Z,1.07
2019-02-10T17:11:39.966Z,1.20
2019-02-10T17:14:07.035Z,0.80
2019-02-10T17:16:34.402Z,0.97
2019-02-10T17:19:01.362Z,0.70
2019-02-10T17:21:28.364Z,1.17
2019-02-10T17:23:55.321Z,0.70
2019-02-10T17:26:22.278Z,0.60
2019-02-10T17:28:49.230Z,1.27
2019-02-10T17:31:16.214Z,1.20
2019-02-10T17:33:43.224Z,1.10
2019-02-10T17:36:10.206Z,1.10
2019-02-10T17:38:37.155Z,1.40
2019-02-10T17:41:22.619Z,1.77
2019-02-10T17:43:44.187Z,1.53
2019-02-10T17:46:11.967Z,1.10
2019-02-10T17:48:38.908Z,1.83
2019-02-10T17:51:05.833Z,1.70
2019-02-10T17:53:32.776Z,1.80
2019-02-10T17:55:59.674Z,1.67
2019-02-10T17:58:26.626Z,2.40
2019-02-10T18:00:53.767Z,2.80
2019-02-10T18:03:20.696Z,2.93
2019-02-10T18:05:47.604Z,2.90
2019-02-10T18:08:14.656Z,3.60
2019-02-10T18:10:41.615Z,3.20
2019-02-10T18:13:10.606Z,3.57
2019-02-10T18:15:56.146Z,2.70
2019-02-10T18:18:38.617Z,2.77
2019-02-10T18:21:29.492Z,2.20
2019-02-10T18:24:24.729Z,2.15
2019-02-10T18:27:17.700Z,2.70
2019-02-10T18:30:00.062Z,2.90
2019-02-10T20:42:03.586Z,1.40
2019-02-10T20:44:48.804Z,1.00
2019-02-10T20:47:21.248Z,0.70
2019-02-10T20:50:07.818Z,0.80
2019-02-10T20:52:57.045Z,0.70
2019-02-10T20:55:51.069Z,0.70
2019-02-10T20:58:37.610Z,0.80
2019-02-10T21:01:39.106Z,0.70
2019-02-10T21:04:31.450Z,0.70
2019-02-10T21:07:11.252Z,0.93
2019-02-10T21:09:56.488Z,1.00
2019-02-10T21:12:48.734Z,0.90
2019-02-10T21:15:34.057Z,0.80
2019-02-10T21:18:38.539Z,0.80
2019-02-10T21:21:34.085Z,0.80
2019-02-10T21:24:20.836Z,0.83
2019-02-10T21:27:04.632Z,0.90
2019-02-10T21:29:49.839Z,0.90
2019-02-10T21:32:36.419Z,0.90
2019-02-10T21:35:21.629Z,0.90
2019-02-10T21:38:07.126Z,0.93
2019-02-10T21:40:50.534Z,1.20
2019-02-10T21:43:37.044Z,0.83
2019-02-10T21:46:18.792Z,1.20
2019-02-10T21:49:06.311Z,1.10
2019-02-10T21:51:33.280Z,1.60
2019-02-10T21:54:00.188Z,1.13
2019-02-10T21:56:27.131Z,1.00
2019-02-10T21:58:54.017Z,1.37
2019-02-10T22:01:21.023Z,1.60
2019-02-10T22:03:47.899Z,1.80
2019-02-10T22:06:16.518Z,1.43
2019-02-10T22:08:43.739Z,1.80
2019-02-10T22:11:10.674Z,2.10
2019-02-10T22:13:37.608Z,2.60
2019-02-10T22:16:04.488Z,2.13
2019-02-10T22:18:31.539Z,2.27
2019-02-10T22:20:58.437Z,2.47
2019-02-10T22:23:25.386Z,2.77
2019-02-10T22:25:52.261Z,2.20
2019-02-10T22:28:19.194Z,2.10
2019-02-10T22:30:46.122Z,1.50
2019-02-10T22:33:13.084Z,1.60
2019-02-10T22:35:39.988Z,2.07
2019-02-10T22:38:07.003Z,1.63
2019-02-10T22:40:33.928Z,2.17
2019-02-10T22:43:00.942Z,2.47
2019-02-10T22:45:27.827Z,2.23
2019-02-10T22:47:54.760Z,1.93
2019-02-10T22:50:21.650Z,2.40
2019-02-10T22:52:48.591Z,2.43
2019-02-10T22:55:15.502Z,2.20
2019-02-10T22:57:42.421Z,2.47
2019-02-10T23:00:40.621Z,2.50
2019-02-10T23:03:07.543Z,2.60
2019-02-10T23:05:34.422Z,2.60
2019-02-10T23:08:01.367Z,2.90
2019-02-10T23:10:28.310Z,2.50
2019-02-10T23:12:55.262Z,3.10
2019-02-10T23:15:22.175Z,2.80
2019-02-10T23:17:49.212Z,2.83
2019-02-10T23:20:16.092Z,3.10
2019-02-10T23:22:43.005Z,2.50
2019-02-10T23:25:09.977Z,3.37
2019-02-10T23:27:36.858Z,3.13
2019-02-10T23:30:04.284Z,3.07
2019-02-10T23:32:31.188Z,4.27
2019-02-10T23:34:58.181Z,3.70
2019-02-10T23:37:25.140Z,3.93
2019-02-10T23:39:52.068Z,4.00
2019-02-10T23:42:18.962Z,4.43
2019-02-10T23:44:45.887Z,4.80
2019-02-10T23:47:12.785Z,4.20
2019-02-10T23:49:39.708Z,4.03
2019-02-10T23:52:06.768Z,5.20
2019-02-10T23:54:33.719Z,5.60
2019-02-10T23:57:00.615Z,4.77
2019-02-10T23:59:27.536Z,5.57
